createdAt,value
2023-05-24T00:00:55.995Z,102505.59
2023-05-24T00:05:59.054Z,102510.47
2023-05-24T00:11:02.496Z,102510.47
2023-05-24T00:16:07.372Z,102490.75
2023-05-24T00:21:11.994Z,102503.38
2023-05-24T00:26:15.031Z,102495.09
2023-05-24T00:31:31.130Z,102500.97
2023-05-24T00:36:38.291Z,102497.09
2023-05-24T00:41:41.705Z,102492.25
2023-05-24T00:46:46.513Z,102481.72
2023-05-24T00:51:50.081Z,102487.25
2023-05-24T00:56:53.428Z,102476.25
2023-05-24T01:01:57.885Z,102472.16
2023-05-24T01:07:14.858Z,102473.03
2023-05-24T01:12:28.501Z,102457.47
2023-05-24T01:17:42.837Z,102467.75
2023-05-24T01:23:09.072Z,102480.66
2023-05-24T01:28:13.987Z,102483.88
2023-05-24T01:33:17.498Z,102476.38
2023-05-24T01:38:20.756Z,102466.50
2023-05-24T01:43:32.835Z,102459.97
2023-05-24T01:48:44.529Z,102470.59
2023-05-24T01:53:50.593Z,102479.38
2023-05-24T01:58:56.728Z,102472.28
2023-05-24T02:04:00.788Z,102479.13
2023-05-24T02:09:03.877Z,102484.47
2023-05-24T02:14:08.359Z,102478.09
2023-05-24T02:19:11.416Z,102459.13
2023-05-24T02:24:19.062Z,102469.34
2023-05-24T02:29:24.706Z,102476.97
2023-05-24T02:34:27.783Z,102479.91
2023-05-24T02:39:31.133Z,102485.16
2023-05-24T02:44:35.728Z,102482.69
2023-05-24T02:49:38.920Z,102484.34
2023-05-24T02:54:42.156Z,102476.84
2023-05-24T02:59:46.762Z,102478.78
2023-05-24T03:04:50.044Z,102483.91
2023-05-24T03:09:53.450Z,102484.31
2023-05-24T03:14:58.181Z,102485.88
2023-05-24T03:20:01.418Z,102480.00
2023-05-24T03:25:08.764Z,102469.41
2023-05-24T03:30:14.648Z,102465.88
2023-05-24T03:35:28.758Z,102460.31
2023-05-24T03:40:33.968Z,102466.34
2023-05-24T03:45:56.851Z,102471.34
2023-05-24T03:51:00.917Z,102476.59
2023-05-24T03:56:04.632Z,102469.44
2023-05-24T04:01:11.153Z,102485.81
2023-05-24T04:06:17.737Z,102479.19
2023-05-24T04:11:39.131Z,102478.63
2023-05-24T04:16:45.150Z,102475.63
2023-05-24T04:21:48.462Z,102461.72
2023-05-24T04:26:51.809Z,102481.88
2023-05-24T04:31:56.475Z,102476.06
2023-05-24T04:37:01.313Z,102468.63
2023-05-24T04:42:05.916Z,102471.13
2023-05-24T04:47:10.862Z,102467.00
2023-05-24T04:52:14.094Z,102446.41
2023-05-24T04:57:17.324Z,102467.66
2023-05-24T05:02:22.547Z,102470.31
2023-05-24T05:07:25.660Z,102467.84
2023-05-24T05:12:29.008Z,102473.81
2023-05-24T05:17:33.384Z,102470.06
2023-05-24T05:22:36.657Z,102464.66
2023-05-24T05:27:39.729Z,102470.72
2023-05-24T05:32:44.391Z,102475.44
2023-05-24T05:37:47.584Z,102483.22
2023-05-24T05:42:51.017Z,102480.31
2023-05-24T05:47:55.513Z,102490.59
2023-05-24T05:52:59.587Z,102499.97
2023-05-24T05:58:02.627Z,102488.88
2023-05-24T06:03:07.284Z,102492.59
2023-05-24T06:08:10.470Z,102499.31
2023-05-24T06:13:14.401Z,102501.09
2023-05-24T06:18:18.839Z,102492.78
2023-05-24T06:23:21.800Z,102490.88
2023-05-24T06:28:24.860Z,102513.81
2023-05-24T06:33:29.286Z,102518.47
2023-05-24T06:38:33.111Z,102526.19
2023-05-24T06:43:36.160Z,102519.56
2023-05-24T06:48:40.723Z,102516.34
2023-05-24T06:53:43.934Z,102514.81
2023-05-24T06:58:46.992Z,102507.47
2023-05-24T07:03:51.792Z,102500.63
2023-05-24T07:08:54.930Z,102511.59
2023-05-24T07:13:58.276Z,102504.66
2023-05-24T07:19:04.898Z,102488.44
2023-05-24T07:24:08.583Z,102508.91
2023-05-24T07:29:12.000Z,102515.09
2023-05-24T07:34:17.083Z,102518.56
2023-05-24T07:39:20.286Z,102510.16
2023-05-24T07:44:23.945Z,102500.28
2023-05-24T07:49:28.330Z,102514.63
2023-05-24T07:54:31.731Z,102507.72
2023-05-24T07:59:34.834Z,102515.81
2023-05-24T08:04:39.607Z,102512.53
2023-05-24T08:09:42.710Z,102511.44
2023-05-24T08:14:45.758Z,102509.78
2023-05-24T08:19:50.308Z,102512.22
2023-05-24T08:24:53.419Z,102483.31
2023-05-24T08:29:58.950Z,102503.56
2023-05-24T08:35:18.632Z,102504.50
2023-05-24T08:40:24.135Z,102502.91
2023-05-24T08:45:27.627Z,102502.25
2023-05-24T08:50:33.590Z,102495.75
2023-05-24T08:55:37.555Z,102473.91
2023-05-24T09:00:40.837Z,102497.94
2023-05-24T09:05:46.474Z,102483.00
2023-05-24T09:10:55.467Z,102488.59
2023-05-24T09:16:00.456Z,102485.19
2023-05-24T09:21:05.199Z,102480.53
2023-05-24T09:26:09.776Z,102479.94
2023-05-24T09:31:14.010Z,102480.31
2023-05-24T09:36:19.760Z,102471.97
2023-05-24T09:41:23.773Z,102475.09
2023-05-24T09:46:27.211Z,102481.41
2023-05-24T09:51:32.489Z,102471.53
2023-05-24T09:56:35.936Z,102470.91
2023-05-24T10:01:47.592Z,102463.00
2023-05-24T10:06:58.326Z,102471.25
2023-05-24T10:12:05.105Z,102467.59
2023-05-24T10:17:09.139Z,102474.91
2023-05-24T10:22:17.144Z,102459.06
2023-05-24T10:27:24.758Z,102461.03
2023-05-24T10:32:31.640Z,102454.03
2023-05-24T10:37:37.208Z,102456.34
2023-05-24T10:42:40.467Z,102441.25
2023-05-24T10:47:43.690Z,102440.22
2023-05-24T10:52:50.324Z,102448.28
2023-05-24T10:57:53.322Z,102446.81
2023-05-24T11:03:01.469Z,102434.66
2023-05-24T11:08:09.586Z,102446.44
2023-05-24T11:13:13.116Z,102443.69
2023-05-24T11:18:17.098Z,102434.94
2023-05-24T11:23:21.560Z,102452.81
2023-05-24T11:28:24.640Z,102447.25
2023-05-24T11:33:27.789Z,102440.03
2023-05-24T11:38:36.773Z,102449.13
2023-05-24T11:43:41.448Z,102440.69
2023-05-24T11:48:44.506Z,102439.78
2023-05-24T11:53:49.014Z,102445.56
2023-05-24T11:58:56.661Z,102451.47
2023-05-24T12:03:59.898Z,102451.88
2023-05-24T12:09:08.576Z,102440.91
2023-05-24T12:14:14.843Z,102445.44
2023-05-24T12:19:31.486Z,102439.34
2023-05-24T12:24:38.373Z,102440.16
2023-05-24T12:29:42.407Z,102432.66
2023-05-24T12:34:46.026Z,102432.53
2023-05-24T12:39:52.399Z,102424.69
2023-05-24T12:44:57.552Z,102436.56
2023-05-24T12:50:00.584Z,102428.00
2023-05-24T12:55:07.011Z,102429.06
2023-05-24T13:00:11.934Z,102425.59
2023-05-24T13:05:15.062Z,102422.19
2023-05-24T13:10:20.565Z,102426.38
2023-05-24T13:15:24.383Z,102438.53
2023-05-24T13:20:27.872Z,102437.91
2023-05-24T13:25:32.792Z,102431.38
2023-05-24T13:30:36.006Z,102441.06
2023-05-24T13:35:39.834Z,102436.00
2023-05-24T13:40:44.596Z,102420.59
2023-05-24T13:45:47.904Z,102419.81
2023-05-24T13:50:51.640Z,102416.69
2023-05-24T13:55:56.577Z,102422.47
2023-05-24T14:00:59.568Z,102419.66
2023-05-24T14:06:02.790Z,102427.13
2023-05-24T14:11:07.555Z,102417.34
2023-05-24T14:16:10.731Z,102423.34
2023-05-24T14:21:14.048Z,102420.66
2023-05-24T14:26:20.140Z,102427.72
2023-05-24T14:31:23.326Z,102435.75
2023-05-24T14:36:26.603Z,102427.16
2023-05-24T14:41:31.138Z,102413.81
2023-05-24T14:46:34.546Z,102418.75
2023-05-24T14:51:38.316Z,102431.59
2023-05-24T14:56:42.865Z,102429.25
2023-05-24T15:01:45.986Z,102425.50
2023-05-24T15:06:49.293Z,102429.66
2023-05-24T15:11:53.878Z,102421.81
2023-05-24T15:16:56.908Z,102428.88
2023-05-24T15:21:59.985Z,102417.84
2023-05-24T15:27:04.746Z,102415.78
2023-05-24T15:32:08.579Z,102421.50
2023-05-24T15:37:11.625Z,102417.88
2023-05-24T15:42:16.912Z,102428.88
2023-05-24T15:47:22.561Z,102415.56
2023-05-24T15:52:25.833Z,102424.53
2023-05-24T15:57:30.472Z,102411.72
2023-05-24T16:02:33.449Z,102427.72
2023-05-24T16:07:36.617Z,102431.81
2023-05-24T16:12:44.210Z,102429.44
2023-05-24T16:17:48.930Z,102418.00
2023-05-24T16:22:52.908Z,102417.91
2023-05-24T16:27:57.852Z,102414.09
2023-05-24T16:33:01.267Z,102406.19
2023-05-24T16:38:04.928Z,102419.84
2023-05-24T16:43:09.435Z,102418.91
2023-05-24T16:48:13.025Z,102416.66
2023-05-24T16:53:16.298Z,102398.22
2023-05-24T16:58:21.128Z,102400.28
2023-05-24T17:03:28.297Z,102403.81
2023-05-24T17:08:34.092Z,102410.25
2023-05-24T17:13:38.541Z,102411.56
2023-05-24T17:18:41.683Z,102391.81
2023-05-24T17:23:44.889Z,102398.34
2023-05-24T17:28:49.515Z,102394.06
2023-05-24T17:33:52.784Z,102393.97
2023-05-24T17:38:55.876Z,102406.25
2023-05-24T17:44:00.509Z,102406.31
2023-05-24T17:49:04.527Z,102408.44
2023-05-24T17:54:07.963Z,102419.34
2023-05-24T17:59:15.488Z,102425.19
2023-05-24T18:04:18.533Z,102413.47
2023-05-24T18:09:22.115Z,102410.53
2023-05-24T18:14:26.597Z,102418.44
2023-05-24T18:19:29.636Z,102411.09
2023-05-24T18:24:32.713Z,102418.53
2023-05-24T18:29:37.434Z,102434.19
2023-05-24T18:34:40.544Z,102428.53
2023-05-24T18:39:43.663Z,102417.44
2023-05-24T18:44:48.285Z,102435.09
2023-05-24T18:49:51.452Z,102452.31
2023-05-24T18:54:55.189Z,102445.00
2023-05-24T18:59:59.737Z,102454.44
2023-05-24T19:05:02.884Z,102443.03
2023-05-24T19:10:07.060Z,102444.59
2023-05-24T19:15:12.509Z,102458.69
2023-05-24T19:20:15.880Z,102454.44
2023-05-24T19:25:19.494Z,102459.16
2023-05-24T19:30:24.087Z,102461.00
2023-05-24T19:35:28.279Z,102474.06
2023-05-24T19:40:31.420Z,102478.72
2023-05-24T19:45:35.918Z,102489.50
2023-05-24T19:50:39.460Z,102490.69
2023-05-24T19:55:42.859Z,102498.75
2023-05-24T20:00:48.008Z,102502.56
2023-05-24T20:05:51.191Z,102505.97
2023-05-24T20:10:54.304Z,102507.38
2023-05-24T20:15:58.886Z,102518.81
2023-05-24T20:21:02.216Z,102509.94
2023-05-24T20:26:05.955Z,102528.31
2023-05-24T20:31:10.619Z,102529.16
2023-05-24T20:36:15.211Z,102539.38
2023-05-24T20:41:18.450Z,102531.59
2023-05-24T20:46:23.679Z,102541.63
2023-05-24T20:51:27.009Z,102542.94
2023-05-24T20:56:30.807Z,102549.47
2023-05-24T21:01:36.411Z,102547.94
2023-05-24T21:06:40.406Z,102547.22
2023-05-24T21:11:48.518Z,102546.75
2023-05-24T21:16:53.440Z,102549.38
2023-05-24T21:21:56.891Z,102560.53
2023-05-24T21:27:00.457Z,102561.59
2023-05-24T21:32:05.644Z,102566.25
2023-05-24T21:37:08.929Z,102573.81
2023-05-24T21:42:12.069Z,102574.22
2023-05-24T21:47:16.527Z,102561.66
2023-05-24T21:52:20.862Z,102595.31
2023-05-24T21:57:26.414Z,102600.25
2023-05-24T22:02:32.018Z,102597.56
2023-05-24T22:07:37.050Z,102591.59
2023-05-24T22:12:40.380Z,102617.38
2023-05-24T22:17:45.112Z,102607.88
2023-05-24T22:22:53.766Z,102604.41
2023-05-24T22:27:56.871Z,102613.78
2023-05-24T22:33:01.396Z,102605.22
2023-05-24T22:38:04.478Z,102612.34
2023-05-24T22:43:07.523Z,102613.88
2023-05-24T22:48:12.124Z,102605.53
2023-05-24T22:53:17.285Z,102599.72
2023-05-24T22:58:23.428Z,102606.63
2023-05-24T23:03:27.832Z,102611.78
2023-05-24T23:08:32.126Z,102617.69
2023-05-24T23:13:35.977Z,102624.31
2023-05-24T23:18:43.056Z,102619.53
2023-05-24T23:23:46.340Z,102617.56
2023-05-24T23:28:49.594Z,102615.78
2023-05-24T23:33:54.257Z,102630.47
2023-05-24T23:38:57.407Z,102628.38
2023-05-24T23:44:00.568Z,102611.28
2023-05-24T23:49:05.033Z,102622.66
2023-05-24T23:54:08.311Z,102627.47
2023-05-24T23:59:11.762Z,102628.81
